sensor_id;sensor_type;location;lat;lon;timestamp;pressure;altitude;pressure_sealevel;temperature;humidity
61571;BME280;47463;49.884;10.010;2023-10-13T00:00:01;101880;;;14.7;87
61571;BME280;47463;49.884;10.010;2023-10-13T00:05:01;101880;;;14.9;87
61571;BME280;47463;49.884;10.010;2023-10-13T00:10:01;101870;;;15;87
61571;BME280;47463;49.884;10.010;2023-10-13T00:15:01;101880;;;14.9;86
61571;BME280;47463;49.884;10.010;2023-10-13T00:20:01;101880;;;14.9;86
61571;BME280;47463;49.884;10.010;2023-10-13T00:25:01;101880;;;14.9;86
61571;BME280;47463;49.884;10.010;2023-10-13T00:30:02;101880;;;14.9;86
61571;BME280;47463;49.884;10.010;2023-10-13T00:35:01;101870;;;14.9;86
61571;BME280;47463;49.884;10.010;2023-10-13T00:40:01;101860;;;14.8;86
61571;BME280;47463;49.884;10.010;2023-10-13T00:45:01;101870;;;14.8;86
61571;BME280;47463;49.884;10.010;2023-10-13T00:50:01;101860;;;15.1;86
61571;BME280;47463;49.884;10.010;2023-10-13T00:55:01;101870;;;15.2;86
61571;BME280;47463;49.884;10.010;2023-10-13T01:00:01;101860;;;15.3;85
61571;BME280;47463;49.884;10.010;2023-10-13T01:05:01;101870;;;15.3;85
61571;BME280;47463;49.884;10.010;2023-10-13T01:10:01;101880;;;15.1;85
61571;BME280;47463;49.884;10.010;2023-10-13T01:15:01;101880;;;15;86
61571;BME280;47463;49.884;10.010;2023-10-13T01:20:01;101880;;;15;86
61571;BME280;47463;49.884;10.010;2023-10-13T01:25:01;101850;;;15.1;86
61571;BME280;47463;49.884;10.010;2023-10-13T01:30:01;101830;;;15.1;86
61571;BME280;47463;49.884;10.010;2023-10-13T01:35:01;101830;;;15.2;86
61571;BME280;47463;49.884;10.010;2023-10-13T01:40:01;101830;;;15.3;85
61571;BME280;47463;49.884;10.010;2023-10-13T01:45:01;101830;;;15.3;85
61571;BME280;47463;49.884;10.010;2023-10-13T01:50:01;101820;;;15.3;85
61571;BME280;47463;49.884;10.010;2023-10-13T01:55:01;101820;;;15.3;85
61571;BME280;47463;49.884;10.010;2023-10-13T02:00:01;101820;;;15.4;85
61571;BME280;47463;49.884;10.010;2023-10-13T02:05:01;101820;;;15.3;85
61571;BME280;47463;49.884;10.010;2023-10-13T02:10:01;101810;;;15.2;85
61571;BME280;47463;49.884;10.010;2023-10-13T02:15:01;101800;;;15.2;85
61571;BME280;47463;49.884;10.010;2023-10-13T02:20:01;101810;;;15.1;85
61571;BME280;47463;49.884;10.010;2023-10-13T02:25:01;101810;;;15.1;86
61571;BME280;47463;49.884;10.010;2023-10-13T02:30:01;101810;;;15;86
61571;BME280;47463;49.884;10.010;2023-10-13T02:35:01;101810;;;14.9;86
61571;BME280;47463;49.884;10.010;2023-10-13T02:40:01;101810;;;14.9;86
61571;BME280;47463;49.884;10.010;2023-10-13T02:45:01;101810;;;14.9;86
61571;BME280;47463;49.884;10.010;2023-10-13T02:50:01;101800;;;14.8;86
61571;BME280;47463;49.884;10.010;2023-10-13T02:55:01;101790;;;14.9;86
61571;BME280;47463;49.884;10.010;2023-10-13T03:00:01;101780;;;15;86
61571;BME280;47463;49.884;10.010;2023-10-13T03:05:01;101770;;;15;86
61571;BME280;47463;49.884;10.010;2023-10-13T03:10:01;101770;;;15;86
61571;BME280;47463;49.884;10.010;2023-10-13T03:15:01;101780;;;15;86
61571;BME280;47463;49.884;10.010;2023-10-13T03:20:01;101760;;;15.1;86
61571;BME280;47463;49.884;10.010;2023-10-13T03:25:01;101770;;;15.1;86
61571;BME280;47463;49.884;10.010;2023-10-13T03:30:01;101770;;;15.1;86
61571;BME280;47463;49.884;10.010;2023-10-13T03:35:01;101750;;;15;86
61571;BME280;47463;49.884;10.010;2023-10-13T03:40:01;101750;;;14.9;86
61571;BME280;47463;49.884;10.010;2023-10-13T03:45:01;101740;;;14.8;86
61571;BME280;47463;49.884;10.010;2023-10-13T03:50:01;101750;;;14.8;86
61571;BME280;47463;49.884;10.010;2023-10-13T03:55:01;101740;;;14.7;86
61571;BME280;47463;49.884;10.010;2023-10-13T04:00:01;101740;;;14.7;86
61571;BME280;47463;49.884;10.010;2023-10-13T04:05:01;101730;;;14.8;87
61571;BME280;47463;49.884;10.010;2023-10-13T04:10:01;101730;;;14.8;86
61571;BME280;47463;49.884;10.010;2023-10-13T04:15:01;101730;;;14.8;86
61571;BME280;47463;49.884;10.010;2023-10-13T04:20:01;101720;;;14.7;86
61571;BME280;47463;49.884;10.010;2023-10-13T04:25:01;101720;;;14.8;86
61571;BME280;47463;49.884;10.010;2023-10-13T04:30:01;101740;;;14.7;86
61571;BME280;47463;49.884;10.010;2023-10-13T04:35:01;101730;;;14.6;86
61571;BME280;47463;49.884;10.010;2023-10-13T04:40:01;101740;;;14.6;86
61571;BME280;47463;49.884;10.010;2023-10-13T04:45:01;101730;;;14.6;86
61571;BME280;47463;49.884;10.010;2023-10-13T04:50:01;101720;;;14.5;86
61571;BME280;47463;49.884;10.010;2023-10-13T04:55:01;101710;;;14.5;86
61571;BME280;47463;49.884;10.010;2023-10-13T05:00:01;101700;;;14.4;85
61571;BME280;47463;49.884;10.010;2023-10-13T05:05:01;101700;;;14.4;86
61571;BME280;47463;49.884;10.010;2023-10-13T05:10:01;101700;;;14.3;86
61571;BME280;47463;49.884;10.010;2023-10-13T05:15:01;101700;;;14.4;86
61571;BME280;47463;49.884;10.010;2023-10-13T05:20:01;101700;;;14.3;85
61571;BME280;47463;49.884;10.010;2023-10-13T05:25:01;101700;;;14.3;85
61571;BME280;47463;49.884;10.010;2023-10-13T05:30:01;101700;;;14.2;85
61571;BME280;47463;49.884;10.010;2023-10-13T05:35:01;101700;;;14.3;85
61571;BME280;47463;49.884;10.010;2023-10-13T05:40:01;101710;;;14.3;85
61571;BME280;47463;49.884;10.010;2023-10-13T05:45:01;101700;;;14.3;84
61571;BME280;47463;49.884;10.010;2023-10-13T05:50:01;101700;;;14.2;84
61571;BME280;47463;49.884;10.010;2023-10-13T05:55:01;101700;;;14.1;85
61571;BME280;47463;49.884;10.010;2023-10-13T06:00:01;101690;;;14;85
61571;BME280;47463;49.884;10.010;2023-10-13T06:05:01;101700;;;14.1;85
61571;BME280;47463;49.884;10.010;2023-10-13T06:10:01;101700;;;14.2;85
61571;BME280;47463;49.884;10.010;2023-10-13T06:15:01;101700;;;14.2;84
61571;BME280;47463;49.884;10.010;2023-10-13T06:20:01;101690;;;14.2;84
61571;BME280;47463;49.884;10.010;2023-10-13T06:25:01;101690;;;14.2;84
61571;BME280;47463;49.884;10.010;2023-10-13T06:30:01;101690;;;14.2;84
61571;BME280;47463;49.884;10.010;2023-10-13T06:35:01;101700;;;14.3;84
61571;BME280;47463;49.884;10.010;2023-10-13T06:40:01;101700;;;14.5;83
61571;BME280;47463;49.884;10.010;2023-10-13T06:45:01;101690;;;14.6;83
61571;BME280;47463;49.884;10.010;2023-10-13T06:50:01;101710;;;14.7;83
61571;BME280;47463;49.884;10.010;2023-10-13T06:55:01;101700;;;14.8;82
61571;BME280;47463;49.884;10.010;2023-10-13T07:00:01;101700;;;14.9;81
61571;BME280;47463;49.884;10.010;2023-10-13T07:05:01;101700;;;15;80
61571;BME280;47463;49.884;10.010;2023-10-13T07:10:01;101710;;;15;81
61571;BME280;47463;49.884;10.010;2023-10-13T07:15:01;101710;;;15.2;79
61571;BME280;47463;49.884;10.010;2023-10-13T07:20:01;101710;;;15.3;79
61571;BME280;47463;49.884;10.010;2023-10-13T07:25:01;101720;;;15.4;78
61571;BME280;47463;49.884;10.010;2023-10-13T07:30:01;101720;;;15.5;78
61571;BME280;47463;49.884;10.010;2023-10-13T07:35:01;101730;;;15.7;77
61571;BME280;47463;49.884;10.010;2023-10-13T07:40:01;101730;;;15.7;77
61571;BME280;47463;49.884;10.010;2023-10-13T07:45:01;101720;;;15.8;77
61571;BME280;47463;49.884;10.010;2023-10-13T07:50:01;101720;;;16;78
61571;BME280;47463;49.884;10.010;2023-10-13T07:55:01;101710;;;16.4;75
61571;BME280;47463;49.884;10.010;2023-10-13T08:00:01;101709.9999;;;16.7;74
61571;BME280;47463;49.884;10.010;2023-10-13T08:05:01;101700;;;16.9;73
61571;BME280;47463;49.884;10.010;2023-10-13T08:10:01;101700;;;17.2;72
61571;BME280;47463;49.884;10.010;2023-10-13T08:15:01;101690;;;17.3;71
61571;BME280;47463;49.884;10.010;2023-10-13T08:20:01;101690;;;17.5;70
61571;BME280;47463;49.884;10.010;2023-10-13T08:25:01;101680;;;17.6;69
61571;BME280;47463;49.884;10.010;2023-10-13T08:30:01;101680;;;17.9;67
61571;BME280;47463;49.884;10.010;2023-10-13T08:35:01;101680;;;18.1;67
61571;BME280;47463;49.884;10.010;2023-10-13T08:40:01;101670;;;18.3;67
61571;BME280;47463;49.884;10.010;2023-10-13T08:45:01;101670;;;18.4;67
61571;BME280;47463;49.884;10.010;2023-10-13T08:50:01;101670;;;18.5;67
61571;BME280;47463;49.884;10.010;2023-10-13T08:55:01;101660;;;18.5;67
61571;BME280;47463;49.884;10.010;2023-10-13T09:00:01;101660;;;18.6;65
61571;BME280;47463;49.884;10.010;2023-10-13T09:05:01;101660;;;18.9;65
61571;BME280;47463;49.884;10.010;2023-10-13T09:10:01;101660;;;19.2;65
61571;BME280;47463;49.884;10.010;2023-10-13T09:15:01;101660;;;19.5;62
61571;BME280;47463;49.884;10.010;2023-10-13T09:20:01;101650;;;19.8;62
61571;BME280;47463;49.884;10.010;2023-10-13T09:25:01;101640;;;20.1;61
61571;BME280;47463;49.884;10.010;2023-10-13T09:30:02;101640;;;20.3;59
61571;BME280;47463;49.884;10.010;2023-10-13T09:35:01;101630;;;20.4;59
61571;BME280;47463;49.884;10.010;2023-10-13T09:40:01;101630;;;20.8;57
61571;BME280;47463;49.884;10.010;2023-10-13T09:45:01;101620;;;21;56
61571;BME280;47463;49.884;10.010;2023-10-13T09:50:01;101600;;;21.2;55
61571;BME280;47463;49.884;10.010;2023-10-13T09:55:05;101600;;;21.4;52
61571;BME280;47463;49.884;10.010;2023-10-13T10:00:05;101600;;;21.5;51
61571;BME280;47463;49.884;10.010;2023-10-13T10:05:01;101580;;;21.6;50
61571;BME280;47463;49.884;10.010;2023-10-13T10:10:01;101580;;;21.8;51
61571;BME280;47463;49.884;10.010;2023-10-13T10:15:09;101570;;;21.8;48
61571;BME280;47463;49.884;10.010;2023-10-13T10:20:01;101580;;;21.9;48
61571;BME280;47463;49.884;10.010;2023-10-13T10:25:01;101570;;;22;49
61571;BME280;47463;49.884;10.010;2023-10-13T10:30:01;101560;;;22.2;49
61571;BME280;47463;49.884;10.010;2023-10-13T10:35:05;101570;;;22.3;48
61571;BME280;47463;49.884;10.010;2023-10-13T10:40:01;101560;;;22.4;47
61571;BME280;47463;49.884;10.010;2023-10-13T10:45:01;101560;;;22.4;45
61571;BME280;47463;49.884;10.010;2023-10-13T10:50:01;101540;;;22.7;48
61571;BME280;47463;49.884;10.010;2023-10-13T10:55:01;101530;;;22.8;46
61571;BME280;47463;49.884;10.010;2023-10-13T11:00:01;101520;;;22.9;46
61571;BME280;47463;49.884;10.010;2023-10-13T11:05:01;101520;;;22.9;45
61571;BME280;47463;49.884;10.010;2023-10-13T11:10:07;101520;;;23;47
61571;BME280;47463;49.884;10.010;2023-10-13T11:15:01;101510;;;23;45
61571;BME280;47463;49.884;10.010;2023-10-13T11:20:07;101490;;;23.1;45
61571;BME280;47463;49.884;10.010;2023-10-13T11:25:01;101500;;;23;44
61571;BME280;47463;49.884;10.010;2023-10-13T11:30:01;101490;;;23.2;43
61571;BME280;47463;49.884;10.010;2023-10-13T11:35:01;101480;;;23.6;44
61571;BME280;47463;49.884;10.010;2023-10-13T11:40:01;101480;;;23.5;42
61571;BME280;47463;49.884;10.010;2023-10-13T11:45:01;101470;;;23.7;42
61571;BME280;47463;49.884;10.010;2023-10-13T11:50:01;101460;;;23.6;42
61571;BME280;47463;49.884;10.010;2023-10-13T11:55:01;101450;;;23.6;42
61571;BME280;47463;49.884;10.010;2023-10-13T12:00:01;101450;;;23.7;41
61571;BME280;47463;49.884;10.010;2023-10-13T12:05:01;101440;;;23.5;40
61571;BME280;47463;49.884;10.010;2023-10-13T12:10:01;101430;;;23.6;41
61571;BME280;47463;49.884;10.010;2023-10-13T12:15:01;101420;;;23.5;41
61571;BME280;47463;49.884;10.010;2023-10-13T12:20:01;101410;;;23.7;40
61571;BME280;47463;49.884;10.010;2023-10-13T12:25:01;101410;;;23.8;39
61571;BME280;47463;49.884;10.010;2023-10-13T12:30:01;101410;;;23.9;40
61571;BME280;47463;49.884;10.010;2023-10-13T12:35:01;101400;;;23.8;41
61571;BME280;47463;49.884;10.010;2023-10-13T12:40:01;101390;;;23.8;40
61571;BME280;47463;49.884;10.010;2023-10-13T12:45:01;101390;;;23.8;41
61571;BME280;47463;49.884;10.010;2023-10-13T12:50:01;101390;;;23.9;41
61571;BME280;47463;49.884;10.010;2023-10-13T12:55:01;101370;;;24;40
61571;BME280;47463;49.884;10.010;2023-10-13T13:00:01;101370;;;24;40
61571;BME280;47463;49.884;10.010;2023-10-13T13:05:01;101360;;;23.9;40
61571;BME280;47463;49.884;10.010;2023-10-13T13:10:01;101350;;;24;41
61571;BME280;47463;49.884;10.010;2023-10-13T13:15:01;101350;;;24;42
61571;BME280;47463;49.884;10.010;2023-10-13T13:20:01;101340;;;24;39
61571;BME280;47463;49.884;10.010;2023-10-13T13:25:01;101340;;;23.9;41
61571;BME280;47463;49.884;10.010;2023-10-13T13:30:01;101330;;;24;40
61571;BME280;47463;49.884;10.010;2023-10-13T13:35:01;101320;;;24.2;39
61571;BME280;47463;49.884;10.010;2023-10-13T13:40:03;101310;;;24.4;38
61571;BME280;47463;49.884;10.010;2023-10-13T13:45:01;101290;;;24.5;37
61571;BME280;47463;49.884;10.010;2023-10-13T13:50:01;101290;;;24.7;37
61571;BME280;47463;49.884;10.010;2023-10-13T13:55:01;101280;;;24.6;37
61571;BME280;47463;49.884;10.010;2023-10-13T14:00:01;101270;;;24.6;37
61571;BME280;47463;49.884;10.010;2023-10-13T14:05:01;101270;;;24.5;37
61571;BME280;47463;49.884;10.010;2023-10-13T14:10:01;101270;;;24.8;36
61571;BME280;47463;49.884;10.010;2023-10-13T14:15:01;101260;;;25;36
61571;BME280;47463;49.884;10.010;2023-10-13T14:20:01;101250;;;25.3;35
61571;BME280;47463;49.884;10.010;2023-10-13T14:25:01;101250;;;25.6;35
61571;BME280;47463;49.884;10.010;2023-10-13T14:30:01;101250;;;25.6;34
61571;BME280;47463;49.884;10.010;2023-10-13T14:35:01;101240;;;25.5;35
61571;BME280;47463;49.884;10.010;2023-10-13T14:40:01;101240;;;25.4;33
61571;BME280;47463;49.884;10.010;2023-10-13T14:45:01;101220;;;25.3;34
61571;BME280;47463;49.884;10.010;2023-10-13T14:50:01;101230;;;25.2;33
61571;BME280;47463;49.884;10.010;2023-10-13T14:55:01;101210;;;25.2;33
61571;BME280;47463;49.884;10.010;2023-10-13T15:00:01;101210;;;25.1;34
61571;BME280;47463;49.884;10.010;2023-10-13T15:05:01;101190;;;24.9;34
61571;BME280;47463;49.884;10.010;2023-10-13T15:10:01;101190;;;24.9;34
61571;BME280;47463;49.884;10.010;2023-10-13T15:15:01;101190;;;24.7;35
61571;BME280;47463;49.884;10.010;2023-10-13T15:20:01;101180;;;24.7;35
61571;BME280;47463;49.884;10.010;2023-10-13T15:25:01;101170;;;24.2;36
61571;BME280;47463;49.884;10.010;2023-10-13T15:30:01;101180;;;24.2;35
61571;BME280;47463;49.884;10.010;2023-10-13T15:35:01;101160;;;24;36
61571;BME280;47463;49.884;10.010;2023-10-13T15:40:01;101160;;;23.9;36
61571;BME280;47463;49.884;10.010;2023-10-13T15:45:02;101160;;;23.7;37
61571;BME280;47463;49.884;10.010;2023-10-13T15:50:01;101160;;;23.7;37
61571;BME280;47463;49.884;10.010;2023-10-13T15:55:01;101150;;;23.7;36
61571;BME280;47463;49.884;10.010;2023-10-13T16:00:01;101150;;;23.6;36
61571;BME280;47463;49.884;10.010;2023-10-13T16:05:01;101140;;;23.7;36
61571;BME280;47463;49.884;10.010;2023-10-13T16:10:01;101130;;;23.5;36
61571;BME280;47463;49.884;10.010;2023-10-13T16:15:01;101120;;;23.4;37
61571;BME280;47463;49.884;10.010;2023-10-13T16:20:01;101130;;;23.2;37
61571;BME280;47463;49.884;10.010;2023-10-13T16:25:01;101130;;;23.2;37
61571;BME280;47463;49.884;10.010;2023-10-13T16:30:01;101130;;;23.1;37
61571;BME280;47463;49.884;10.010;2023-10-13T16:35:01;101130;;;22.7;39
61571;BME280;47463;49.884;10.010;2023-10-13T16:40:01;101130;;;22.4;40
61571;BME280;47463;49.884;10.010;2023-10-13T16:45:01;101120;;;21.9;43
61571;BME280;47463;49.884;10.010;2023-10-13T16:50:01;101120;;;21.4;46
61571;BME280;47463;49.884;10.010;2023-10-13T16:55:01;101120;;;21.1;46
61571;BME280;47463;49.884;10.010;2023-10-13T17:00:01;101110;;;21;47
61571;BME280;47463;49.884;10.010;2023-10-13T17:05:01;101110;;;20.8;47
61571;BME280;47463;49.884;10.010;2023-10-13T17:10:01;101100;;;20.3;49
61571;BME280;47463;49.884;10.010;2023-10-13T17:15:01;101100;;;20.4;46
61571;BME280;47463;49.884;10.010;2023-10-13T17:20:01;101100;;;20.2;47
61571;BME280;47463;49.884;10.010;2023-10-13T17:25:01;101090;;;19.6;50
61571;BME280;47463;49.884;10.010;2023-10-13T17:30:01;101090;;;19.7;49
61571;BME280;47463;49.884;10.010;2023-10-13T17:35:01;101090;;;19.8;47
61571;BME280;47463;49.884;10.010;2023-10-13T17:40:01;101080;;;20.5;43
61571;BME280;47463;49.884;10.010;2023-10-13T17:45:01;101080;;;20.8;42
61571;BME280;47463;49.884;10.010;2023-10-13T17:50:01;101080;;;21.5;39
61571;BME280;47463;49.884;10.010;2023-10-13T17:55:01;101080;;;21.2;40
61571;BME280;47463;49.884;10.010;2023-10-13T18:00:01;101070;;;20.7;42
61571;BME280;47463;49.884;10.010;2023-10-13T18:05:01;101060;;;20.5;43
61571;BME280;47463;49.884;10.010;2023-10-13T18:10:01;101060;;;20.3;43
61571;BME280;47463;49.884;10.010;2023-10-13T18:15:01;101050;;;20;45
61571;BME280;47463;49.884;10.010;2023-10-13T18:20:01;101050;;;19.7;46
61571;BME280;47463;49.884;10.010;2023-10-13T18:25:01;101050;;;19.7;45
61571;BME280;47463;49.884;10.010;2023-10-13T18:30:01;101050;;;19.9;44
61571;BME280;47463;49.884;10.010;2023-10-13T18:35:01;101040;;;20.3;43
61571;BME280;47463;49.884;10.010;2023-10-13T18:40:01;101040;;;20.9;41
61571;BME280;47463;49.884;10.010;2023-10-13T18:45:01;101020;;;21;40
61571;BME280;47463;49.884;10.010;2023-10-13T18:50:01;101020;;;20.4;42
61571;BME280;47463;49.884;10.010;2023-10-13T18:55:01;101020;;;20.2;43
61571;BME280;47463;49.884;10.010;2023-10-13T19:00:01;101020;;;20;45
61571;BME280;47463;49.884;10.010;2023-10-13T19:05:01;101020;;;20.4;42
61571;BME280;47463;49.884;10.010;2023-10-13T19:10:01;101010;;;20.3;42
61571;BME280;47463;49.884;10.010;2023-10-13T19:15:01;101010;;;20.5;42
61571;BME280;47463;49.884;10.010;2023-10-13T19:20:01;101000;;;20.1;44
61571;BME280;47463;49.884;10.010;2023-10-13T19:25:01;101000;;;20.1;44
61571;BME280;47463;49.884;10.010;2023-10-13T19:30:01;101000;;;19.5;47
61571;BME280;47463;49.884;10.010;2023-10-13T19:35:01;100980;;;19.5;46
61571;BME280;47463;49.884;10.010;2023-10-13T19:40:01;100990;;;19.5;46
61571;BME280;47463;49.884;10.010;2023-10-13T19:45:01;100990;;;19.6;45
61571;BME280;47463;49.884;10.010;2023-10-13T19:50:01;100970;;;19.5;46
61571;BME280;47463;49.884;10.010;2023-10-13T19:55:01;100970;;;19.7;45
61571;BME280;47463;49.884;10.010;2023-10-13T20:00:01;100970;;;19.8;45
61571;BME280;47463;49.884;10.010;2023-10-13T20:05:01;100960;;;19.7;45
61571;BME280;47463;49.884;10.010;2023-10-13T20:10:01;100950;;;19.8;44
61571;BME280;47463;49.884;10.010;2023-10-13T20:15:01;100960;;;19.8;44
61571;BME280;47463;49.884;10.010;2023-10-13T20:20:01;100950;;;19.8;43
61571;BME280;47463;49.884;10.010;2023-10-13T20:25:01;100950;;;19.9;43
61571;BME280;47463;49.884;10.010;2023-10-13T20:30:01;100950;;;20.1;42
61571;BME280;47463;49.884;10.010;2023-10-13T20:35:01;100940;;;20.3;41
61571;BME280;47463;49.884;10.010;2023-10-13T20:40:01;100930;;;20.3;40
61571;BME280;47463;49.884;10.010;2023-10-13T20:45:01;100930;;;20.5;40
61571;BME280;47463;49.884;10.010;2023-10-13T20:50:01;100930;;;20.9;38
61571;BME280;47463;49.884;10.010;2023-10-13T20:55:01;100930;;;20.7;39
61571;BME280;47463;49.884;10.010;2023-10-13T21:00:01;100940;;;20.6;38
61571;BME280;47463;49.884;10.010;2023-10-13T21:05:01;100940;;;20.6;38
61571;BME280;47463;49.884;10.010;2023-10-13T21:10:01;100930;;;20.5;39
61571;BME280;47463;49.884;10.010;2023-10-13T21:15:01;100930;;;20.4;39
61571;BME280;47463;49.884;10.010;2023-10-13T21:20:01;100930;;;20.6;38
61571;BME280;47463;49.884;10.010;2023-10-13T21:25:01;100940;;;20.4;39
61571;BME280;47463;49.884;10.010;2023-10-13T21:30:01;100930;;;20.5;38
61571;BME280;47463;49.884;10.010;2023-10-13T21:35:01;100920;;;20.3;38
61571;BME280;47463;49.884;10.010;2023-10-13T21:40:01;100920;;;20.3;38
61571;BME280;47463;49.884;10.010;2023-10-13T21:45:01;100920;;;20.7;38
61571;BME280;47463;49.884;10.010;2023-10-13T21:50:01;100910;;;20.6;38
61571;BME280;47463;49.884;10.010;2023-10-13T21:55:01;100920;;;20.6;38
61571;BME280;47463;49.884;10.010;2023-10-13T22:00:01;100910;;;20.5;38
61571;BME280;47463;49.884;10.010;2023-10-13T22:05:01;100900;;;20.5;38
61571;BME280;47463;49.884;10.010;2023-10-13T22:10:01;100910;;;20.4;39
61571;BME280;47463;49.884;10.010;2023-10-13T22:15:01;100910;;;20.6;38
61571;BME280;47463;49.884;10.010;2023-10-13T22:20:01;100910;;;20.5;38
61571;BME280;47463;49.884;10.010;2023-10-13T22:25:01;100910;;;20.3;39
61571;BME280;47463;49.884;10.010;2023-10-13T22:30:01;100910;;;20.1;40
61571;BME280;47463;49.884;10.010;2023-10-13T22:35:01;100910;;;20.4;39
61571;BME280;47463;49.884;10.010;2023-10-13T22:40:01;100920;;;20.3;39
61571;BME280;47463;49.884;10.010;2023-10-13T22:45:01;100930;;;20.4;39
61571;BME280;47463;49.884;10.010;2023-10-13T22:50:01;100930;;;20.5;39
61571;BME280;47463;49.884;10.010;2023-10-13T22:55:01;100930;;;20.3;39
61571;BME280;47463;49.884;10.010;2023-10-13T23:00:01;100930;;;20.3;39
61571;BME280;47463;49.884;10.010;2023-10-13T23:05:01;100940;;;20.4;39
61571;BME280;47463;49.884;10.010;2023-10-13T23:10:01;100940;;;20.6;38
61571;BME280;47463;49.884;10.010;2023-10-13T23:15:01;100940;;;20.6;38
61571;BME280;47463;49.884;10.010;2023-10-13T23:20:01;100950;;;20.6;39
61571;BME280;47463;49.884;10.010;2023-10-13T23:25:01;100940;;;20.5;39
61571;BME280;47463;49.884;10.010;2023-10-13T23:30:01;100960;;;20.7;40
61571;BME280;47463;49.884;10.010;2023-10-13T23:35:01;100960;;;20.4;42
61571;BME280;47463;49.884;10.010;2023-10-13T23:40:01;100960;;;20.3;42
61571;BME280;47463;49.884;10.010;2023-10-13T23:45:01;100940;;;20.2;43
61571;BME280;47463;49.884;10.010;2023-10-13T23:50:01;100940;;;20;44
61571;BME280;47463;49.884;10.010;2023-10-13T23:55:01;100950;;;20.1;44
